Time;durP1;ratioP1;P1;durP2;ratioP2;P2;SDS_P1;SDS_P2;PMS_P1;PMS_P2;Temp;Humidity;BMP_temperature;BMP_pressure;BME280_temperature;BME280_humidity;BME280_pressure;Samples;Min_cycle;Max_cycle;Signal;HPM_P1;HPM_P2
2021/11/23 00:02:25;;;;;;;;;;;18.30;99.90;;;;;;5075465;28;20437;-76
2021/11/23 00:04:52;;;;;;;;;;;18.40;99.90;;;;;;5075789;28;19908;-74
2021/11/23 00:07:19;;;;;;;;;;;18.60;99.90;;;;;;5075352;28;19913;-75
2021/11/23 00:09:45;;;;;;;;;;;18.60;99.90;;;;;;5075293;28;19912;-76
2021/11/23 00:12:12;;;;;;;;;;;18.60;99.90;;;;;;5075463;28;19908;-74
2021/11/23 00:14:39;;;;;;;;;;;18.60;99.90;;;;;;5075507;28;19980;-76
2021/11/23 00:17:06;;;;;;;;;;;18.80;99.90;;;;;;5075395;28;20062;-76
2021/11/23 00:19:32;;;;;;;;;;;18.90;99.90;;;;;;5075075;28;19951;-76
2021/11/23 00:21:59;;;;;;;;;;;18.90;99.90;;;;;;5075117;28;19962;-73
2021/11/23 00:24:26;;;;;;;;;;;19.00;99.90;;;;;;5075346;28;19944;-74
2021/11/23 00:26:53;;;;;;;;;;;19.00;99.90;;;;;;5075350;28;19913;-74
2021/11/23 00:29:19;;;;;;;;;;;19.00;99.90;;;;;;5075156;28;19913;-74
2021/11/23 00:31:46;;;;;;;;;;;19.20;99.90;;;;;;5075137;28;20333;-74
2021/11/23 00:34:13;;;;;;;;;;;19.30;99.90;;;;;;5074252;28;20011;-75
2021/11/23 00:36:39;;;;;;;;;;;19.50;99.90;;;;;;5075156;28;20363;-76
2021/11/23 00:39:06;;;;;;;;;;;19.40;99.90;;;;;;5075093;28;20367;-76
2021/11/23 00:41:33;;;;;;;;;;;19.40;99.90;;;;;;5075080;28;19912;-73
2021/11/23 00:43:59;;;;;;;;;;;19.30;99.90;;;;;;5074937;28;19908;-75
2021/11/23 00:46:26;;;;;;;;;;;19.30;99.90;;;;;;5074732;28;20286;-75
2021/11/23 00:48:53;;;;;;;;;;;19.20;99.90;;;;;;5074595;28;19918;-74
2021/11/23 00:51:20;;;;;;;;;;;19.10;99.90;;;;;;5074673;28;19962;-73
2021/11/23 00:53:46;;;;;;;;;;;19.10;99.90;;;;;;5074441;28;19916;-71
2021/11/23 00:56:13;;;;;;;;;;;19.10;99.90;;;;;;5074721;28;20385;-76
2021/11/23 00:58:40;;;;;;;;;;;19.20;99.90;;;;;;5074738;28;19909;-76
2021/11/23 01:01:06;;;;;;;;;;;19.20;99.90;;;;;;5074600;28;19920;-76
2021/11/23 01:03:33;;;;;;;;;;;19.30;99.90;;;;;;5074605;28;19995;-76
2021/11/23 01:06:00;;;;;;;;;;;19.20;99.90;;;;;;5074449;28;19915;-72
2021/11/23 01:08:27;;;;;;;;;;;19.30;99.90;;;;;;5074594;28;20271;-76
2021/11/23 01:10:55;;;;;;;;;;;19.30;99.90;;;;;;5074029;28;19958;-76
2021/11/23 01:13:22;;;;;;;;;;;19.40;99.90;;;;;;5074413;28;20363;-76
2021/11/23 01:15:49;;;;;;;;;;;19.50;99.90;;;;;;5074003;28;19917;-73
2021/11/23 01:18:16;;;;;;;;;;;19.50;99.90;;;;;;5074403;28;20426;-70
2021/11/23 01:20:42;;;;;;;;;;;19.30;99.90;;;;;;5074395;28;19909;-71
2021/11/23 01:23:09;;;;;;;;;;;19.30;99.90;;;;;;5090026;28;19909;-70
2021/11/23 01:25:36;;;;;;;;;;;19.30;99.90;;;;;;5074316;28;19909;-70
2021/11/23 01:28:03;;;;;;;;;;;19.20;99.90;;;;;;5073829;28;19908;-76
2021/11/23 01:30:29;;;;;;;;;;;19.20;99.90;;;;;;5073813;28;19954;-71
2021/11/23 01:32:56;;;;;;;;;;;19.10;99.90;;;;;;5074138;28;20283;-71
2021/11/23 01:35:23;;;;;;;;;;;19.10;99.90;;;;;;5073868;28;19916;-74
2021/11/23 01:37:50;;;;;;;;;;;19.10;99.90;;;;;;5073444;28;19908;-75
2021/11/23 01:40:17;;;;;;;;;;;19.20;99.90;;;;;;5073778;28;19909;-74
2021/11/23 01:42:44;;;;;;;;;;;19.30;99.90;;;;;;5073620;28;19912;-72
2021/11/23 01:45:12;;;;;;;;;;;19.40;99.90;;;;;;5074122;28;20375;-75
2021/11/23 01:47:39;;;;;;;;;;;19.50;99.90;;;;;;5072799;28;20406;-70
2021/11/23 01:50:06;;;;;;;;;;;19.40;99.90;;;;;;5073219;28;19908;-74
2021/11/23 01:52:33;;;;;;;;;;;19.30;99.90;;;;;;5073331;28;19962;-69
2021/11/23 01:55:02;;;;;;;;;;;19.30;99.90;;;;;;5073166;28;19975;-71
2021/11/23 01:57:28;;;;;;;;;;;19.30;99.90;;;;;;5073372;28;20007;-71
2021/11/23 01:59:55;;;;;;;;;;;19.40;99.90;;;;;;5073034;28;19968;-70
2021/11/23 02:02:22;;;;;;;;;;;19.40;99.90;;;;;;5073212;28;19909;-74
2021/11/23 02:04:49;;;;;;;;;;;19.40;99.90;;;;;;5073287;28;19916;-70
2021/11/23 02:07:17;;;;;;;;;;;19.40;99.90;;;;;;5073440;28;19908;-70
2021/11/23 02:09:45;;;;;;;;;;;19.40;99.90;;;;;;5073182;28;19919;-68
2021/11/23 02:12:11;;;;;;;;;;;19.30;99.90;;;;;;5072757;28;19920;-69
2021/11/23 02:14:38;;;;;;;;;;;19.30;99.90;;;;;;5072955;28;19920;-68
2021/11/23 02:17:05;;;;;;;;;;;19.30;99.90;;;;;;5073079;28;19995;-72
2021/11/23 02:19:32;;;;;;;;;;;19.30;99.90;;;;;;5073048;28;19909;-71
2021/11/23 02:21:59;;;;;;;;;;;19.30;99.90;;;;;;5072788;28;20363;-73
2021/11/23 02:24:25;;;;;;;;;;;19.30;99.90;;;;;;5072630;28;19909;-70
2021/11/23 02:26:52;;;;;;;;;;;19.30;99.90;;;;;;5072919;28;20351;-71
2021/11/23 02:29:19;;;;;;;;;;;19.30;99.90;;;;;;5073217;28;20359;-77
2021/11/23 02:31:45;;;;;;;;;;;19.20;99.90;;;;;;5072773;28;19909;-74
2021/11/23 02:34:12;;;;;;;;;;;19.20;99.90;;;;;;5072779;28;19950;-68
2021/11/23 02:36:41;;;;;;;;;;;19.20;99.90;;;;;;5072994;28;20260;-67
2021/11/23 02:39:08;;;;;;;;;;;19.30;99.90;;;;;;5072602;28;19978;-72
2021/11/23 02:41:35;;;;;;;;;;;19.50;99.90;;;;;;5072833;28;19909;-74
2021/11/23 02:44:02;;;;;;;;;;;19.60;99.90;;;;;;5072531;28;19953;-69
2021/11/23 02:46:29;;;;;;;;;;;19.60;99.90;;;;;;5072705;28;20000;-74
2021/11/23 02:48:55;;;;;;;;;;;19.70;99.90;;;;;;5072699;28;19913;-73
2021/11/23 02:51:23;;;;;;;;;;;19.80;99.90;;;;;;5071578;28;19908;-69
2021/11/23 02:53:51;;;;;;;;;;;20.00;99.90;;;;;;5071333;28;20271;-71
2021/11/23 02:56:18;;;;;;;;;;;20.10;99.90;;;;;;5072679;28;19912;-71
2021/11/23 02:58:50;;;;;;;;;;;20.20;99.90;;;;;;5072231;28;20359;-68
2021/11/23 03:01:18;;;;;;;;;;;20.20;99.90;;;;;;5072336;28;19924;-72
2021/11/23 03:03:45;;;;;;;;;;;20.30;99.90;;;;;;5072544;28;20337;-70
2021/11/23 03:06:17;;;;;;;;;;;20.10;99.90;;;;;;5072484;28;19909;-71
2021/11/23 03:08:48;;;;;;;;;;;20.10;99.90;;;;;;5072355;28;19954;-74
2021/11/23 03:11:16;;;;;;;;;;;20.10;99.90;;;;;;5072369;28;19913;-73
2021/11/23 03:13:43;;;;;;;;;;;20.00;99.90;;;;;;5072071;28;19961;-73
2021/11/23 03:16:10;;;;;;;;;;;20.00;99.90;;;;;;5072157;28;19912;-67
2021/11/23 03:18:36;;;;;;;;;;;20.00;99.90;;;;;;5072272;28;19915;-73
2021/11/23 03:21:03;;;;;;;;;;;20.00;99.90;;;;;;5072190;28;20219;-72
2021/11/23 03:23:30;;;;;;;;;;;20.00;99.90;;;;;;5071996;28;19912;-73
2021/11/23 03:25:57;;;;;;;;;;;20.00;99.90;;;;;;5072140;28;19934;-74
2021/11/23 03:28:24;;;;;;;;;;;19.90;99.90;;;;;;5072297;28;19908;-70
2021/11/23 03:30:50;;;;;;;;;;;19.80;99.90;;;;;;5072345;28;19944;-72
2021/11/23 03:33:17;;;;;;;;;;;19.70;99.90;;;;;;5072285;28;19942;-69
2021/11/23 03:35:44;;;;;;;;;;;19.80;99.90;;;;;;5072284;28;19917;-73
2021/11/23 03:38:12;;;;;;;;;;;19.90;99.90;;;;;;5071960;28;20270;-72
2021/11/23 03:40:39;;;;;;;;;;;20.00;99.90;;;;;;5072214;28;20424;-70
2021/11/23 03:43:06;;;;;;;;;;;20.10;99.90;;;;;;5071973;28;19913;-76
2021/11/23 03:45:33;;;;;;;;;;;20.10;99.90;;;;;;5072125;28;19938;-69
2021/11/23 03:48:00;;;;;;;;;;;20.10;99.90;;;;;;5071835;28;19916;-70
2021/11/23 03:50:28;;;;;;;;;;;20.30;99.90;;;;;;5072004;28;19909;-70
2021/11/23 03:52:56;;;;;;;;;;;20.40;99.90;;;;;;5071877;28;19916;-69
2021/11/23 03:55:22;;;;;;;;;;;20.50;99.90;;;;;;5071992;28;19916;-68
2021/11/23 03:57:52;;;;;;;;;;;20.50;99.90;;;;;;5071757;28;19915;-74
2021/11/23 04:00:20;;;;;;;;;;;20.60;99.90;;;;;;5071781;28;20006;-69
2021/11/23 04:02:48;;;;;;;;;;;20.60;99.90;;;;;;5071784;28;19912;-69
2021/11/23 04:05:15;;;;;;;;;;;20.50;99.90;;;;;;5071346;28;19982;-71
2021/11/23 04:07:42;;;;;;;;;;;20.50;99.90;;;;;;5071856;28;19916;-69
2021/11/23 04:10:10;;;;;;;;;;;20.50;99.90;;;;;;5072936;28;19908;-70
2021/11/23 04:12:37;;;;;;;;;;;20.40;99.90;;;;;;5075504;28;19909;-70
2021/11/23 04:15:05;;;;;;;;;;;20.40;99.90;;;;;;5075158;28;20306;-70
2021/11/23 04:17:31;;;;;;;;;;;20.40;99.90;;;;;;5075281;28;19971;-72
2021/11/23 04:19:58;;;;;;;;;;;20.10;99.90;;;;;;5075166;28;19915;-67
2021/11/23 04:22:25;;;;;;;;;;;20.00;99.90;;;;;;5075339;28;19914;-69
2021/11/23 04:24:52;;;;;;;;;;;19.80;99.90;;;;;;5075245;28;19966;-71
2021/11/23 04:27:18;;;;;;;;;;;19.80;99.90;;;;;;5075101;28;19916;-73
2021/11/23 04:29:45;;;;;;;;;;;19.70;99.90;;;;;;5075009;28;19934;-68
2021/11/23 04:32:12;;;;;;;;;;;19.60;99.90;;;;;;5075217;28;19909;-74
2021/11/23 04:34:38;;;;;;;;;;;19.40;99.90;;;;;;5075121;28;19924;-72
2021/11/23 04:37:06;;;;;;;;;;;19.40;99.90;;;;;;5075134;28;19909;-76
2021/11/23 04:39:33;;;;;;;;;;;19.30;99.90;;;;;;5074877;28;19908;-75
2021/11/23 04:41:59;;;;;;;;;;;19.20;99.90;;;;;;5074694;28;20303;-74
2021/11/23 04:44:26;;;;;;;;;;;19.20;99.90;;;;;;5074796;28;19998;-76
2021/11/23 04:46:53;;;;;;;;;;;19.20;99.90;;;;;;5074758;28;19915;-77
2021/11/23 04:49:22;;;;;;;;;;;19.20;99.90;;;;;;5074882;28;19909;-76
2021/11/23 04:51:49;;;;;;;;;;;19.10;99.90;;;;;;5074517;28;20278;-74
2021/11/23 04:54:16;;;;;;;;;;;19.10;99.90;;;;;;5074653;28;19919;-74
2021/11/23 04:56:42;;;;;;;;;;;19.10;99.90;;;;;;5074836;28;19962;-77
2021/11/23 04:59:09;;;;;;;;;;;19.20;99.90;;;;;;5074395;28;19920;-74
2021/11/23 05:01:36;;;;;;;;;;;19.20;99.90;;;;;;5074515;28;19916;-74
2021/11/23 05:04:02;;;;;;;;;;;19.30;99.90;;;;;;5074264;28;19909;-71
2021/11/23 05:06:30;;;;;;;;;;;19.30;99.90;;;;;;5074479;28;19915;-74
2021/11/23 05:08:57;;;;;;;;;;;19.30;99.90;;;;;;5074320;28;20007;-75
2021/11/23 05:11:27;;;;;;;;;;;19.20;99.90;;;;;;5072959;28;19962;-74
2021/11/23 05:13:53;;;;;;;;;;;19.30;99.90;;;;;;5073893;28;19908;-75
2021/11/23 05:16:20;;;;;;;;;;;19.50;99.90;;;;;;5074395;28;19912;-76
2021/11/23 05:18:48;;;;;;;;;;;19.60;99.90;;;;;;5074326;28;19908;-75
2021/11/23 05:21:14;;;;;;;;;;;19.60;99.90;;;;;;5073943;28;19913;-74
2021/11/23 05:23:41;;;;;;;;;;;19.60;99.90;;;;;;5073912;28;19908;-71
2021/11/23 05:26:07;;;;;;;;;;;19.60;99.90;;;;;;5073841;28;20263;-75
2021/11/23 05:28:34;;;;;;;;;;;19.60;99.90;;;;;;5074162;28;20282;-75
2021/11/23 05:31:01;;;;;;;;;;;19.60;99.90;;;;;;5074080;28;20362;-75
2021/11/23 05:33:28;;;;;;;;;;;19.60;99.90;;;;;;5073719;28;19946;-75
2021/11/23 05:35:54;;;;;;;;;;;19.60;99.90;;;;;;5073555;28;19920;-72
2021/11/23 05:38:21;;;;;;;;;;;19.70;99.90;;;;;;5073708;28;20005;-74
2021/11/23 05:40:48;;;;;;;;;;;19.70;99.90;;;;;;5073618;28;19912;-74
2021/11/23 05:43:15;;;;;;;;;;;19.70;99.90;;;;;;5072302;28;19994;-76
2021/11/23 05:45:43;;;;;;;;;;;19.80;99.90;;;;;;5073641;28;20298;-76
2021/11/23 05:48:09;;;;;;;;;;;19.80;99.90;;;;;;5073325;28;19916;-74
2021/11/23 05:50:36;;;;;;;;;;;19.80;99.90;;;;;;5072648;28;19915;-75
2021/11/23 05:53:03;;;;;;;;;;;19.80;99.90;;;;;;5071151;28;19909;-75
2021/11/23 05:55:31;;;;;;;;;;;19.80;99.90;;;;;;5071550;28;20003;-76
2021/11/23 05:57:57;;;;;;;;;;;19.90;99.90;;;;;;5071398;28;19984;-76
2021/11/23 06:00:24;;;;;;;;;;;19.80;99.90;;;;;;5071210;28;19967;-76
2021/11/23 06:02:54;;;;;;;;;;;19.80;99.90;;;;;;5070598;28;20476;-76
2021/11/23 06:05:22;;;;;;;;;;;19.80;99.90;;;;;;5070840;28;19909;-74
2021/11/23 06:07:48;;;;;;;;;;;19.70;99.90;;;;;;5070981;28;19999;-67
2021/11/23 06:10:15;;;;;;;;;;;19.70;99.90;;;;;;5071304;28;19908;-74
2021/11/23 06:12:42;;;;;;;;;;;19.60;99.90;;;;;;5070794;28;19908;-74
2021/11/23 06:15:11;;;;;;;;;;;19.60;99.90;;;;;;5070749;28;19916;-68
2021/11/23 06:17:38;;;;;;;;;;;19.70;99.90;;;;;;5070703;28;20321;-71
2021/11/23 06:20:05;;;;;;;;;;;19.60;99.90;;;;;;5070561;28;20019;-73
2021/11/23 06:22:35;;;;;;;;;;;19.60;99.90;;;;;;5070880;28;19908;-72
2021/11/23 06:25:02;;;;;;;;;;;19.60;99.90;;;;;;5071035;28;19913;-74
2021/11/23 06:27:30;;;;;;;;;;;19.60;99.90;;;;;;5070678;28;20277;-75
2021/11/23 06:29:58;;;;;;;;;;;19.60;99.90;;;;;;5070241;28;19908;-70
2021/11/23 06:32:25;;;;;;;;;;;19.50;99.90;;;;;;5069982;28;20702;-74
2021/11/23 06:34:52;;;;;;;;;;;19.50;99.90;;;;;;5070584;28;20251;-74
2021/11/23 06:37:19;;;;;;;;;;;19.40;99.90;;;;;;5070414;28;19917;-72
2021/11/23 06:39:46;;;;;;;;;;;19.50;99.90;;;;;;5070419;28;19916;-69
2021/11/23 06:42:12;;;;;;;;;;;19.40;99.90;;;;;;5070610;28;20263;-73
2021/11/23 06:44:40;;;;;;;;;;;19.40;99.90;;;;;;5070268;28;19940;-68
2021/11/23 06:47:06;;;;;;;;;;;19.40;99.90;;;;;;5070641;28;19931;-69
2021/11/23 06:49:33;;;;;;;;;;;19.40;99.90;;;;;;5070528;28;19908;-69
2021/11/23 06:52:00;;;;;;;;;;;19.30;99.90;;;;;;5070189;28;20122;-68
2021/11/23 06:54:26;;;;;;;;;;;19.30;99.90;;;;;;5070267;28;20389;-72
2021/11/23 06:56:55;;;;;;;;;;;19.50;99.90;;;;;;5069846;28;19916;-68
2021/11/23 06:59:22;;;;;;;;;;;19.50;99.90;;;;;;5070235;28;19999;-71
2021/11/23 07:01:49;;;;;;;;;;;19.50;99.90;;;;;;5070226;28;19927;-73
2021/11/23 07:04:16;;;;;;;;;;;19.50;99.90;;;;;;5070388;28;19912;-71
2021/11/23 07:06:44;;;;;;;;;;;19.50;99.90;;;;;;5070513;28;19909;-70
2021/11/23 07:09:11;;;;;;;;;;;19.50;99.90;;;;;;5069895;28;19916;-68
2021/11/23 07:11:39;;;;;;;;;;;19.60;99.90;;;;;;5070460;28;19912;-74
2021/11/23 07:14:06;;;;;;;;;;;19.60;99.90;;;;;;5070099;28;19912;-73
2021/11/23 07:16:36;;;;;;;;;;;19.50;99.90;;;;;;5070353;28;19913;-76
2021/11/23 07:19:03;;;;;;;;;;;19.60;99.90;;;;;;5070101;28;19912;-74
2021/11/23 07:21:30;;;;;;;;;;;19.60;99.90;;;;;;5070313;28;20359;-73
2021/11/23 07:23:57;;;;;;;;;;;19.60;99.90;;;;;;5069369;28;19958;-76
2021/11/23 07:26:25;;;;;;;;;;;19.60;99.90;;;;;;5070022;28;19912;-71
2021/11/23 07:28:52;;;;;;;;;;;19.50;99.90;;;;;;5069965;28;19912;-73
2021/11/23 07:31:18;;;;;;;;;;;19.50;99.90;;;;;;5070293;28;19909;-72
2021/11/23 07:33:47;;;;;;;;;;;19.50;99.90;;;;;;5070252;28;19919;-74
2021/11/23 07:36:14;;;;;;;;;;;19.50;99.90;;;;;;5070042;28;19956;-70
2021/11/23 07:38:41;;;;;;;;;;;19.50;99.90;;;;;;5069949;28;19952;-75
2021/11/23 07:41:07;;;;;;;;;;;19.50;99.90;;;;;;5068562;28;20376;-74
2021/11/23 07:43:34;;;;;;;;;;;19.50;99.90;;;;;;5070544;28;19995;-75
2021/11/23 07:46:01;;;;;;;;;;;19.50;99.90;;;;;;5073721;28;20305;-76
2021/11/23 07:48:28;;;;;;;;;;;19.50;99.90;;;;;;5073610;28;20405;-75
2021/11/23 07:50:54;;;;;;;;;;;19.50;99.90;;;;;;5073799;28;19923;-71
2021/11/23 07:53:21;;;;;;;;;;;19.50;99.90;;;;;;5073573;28;20002;-75
2021/11/23 07:55:51;;;;;;;;;;;19.50;99.90;;;;;;5073665;28;20399;-75
2021/11/23 07:58:18;;;;;;;;;;;19.50;99.90;;;;;;5089067;28;19916;-74
2021/11/23 08:00:46;;;;;;;;;;;19.40;99.90;;;;;;5073804;28;19925;-74
2021/11/23 08:03:12;;;;;;;;;;;19.40;99.90;;;;;;5073185;28;19912;-73
2021/11/23 08:05:40;;;;;;;;;;;19.50;99.90;;;;;;5074239;28;19908;-74
2021/11/23 08:08:08;;;;;;;;;;;19.40;99.90;;;;;;5075020;28;19942;-72
2021/11/23 08:10:35;;;;;;;;;;;19.40;99.90;;;;;;5075562;28;19929;-74
2021/11/23 08:13:02;;;;;;;;;;;19.40;99.90;;;;;;5075324;28;19909;-72
2021/11/23 08:15:29;;;;;;;;;;;19.30;99.90;;;;;;5075307;28;19946;-75
2021/11/23 08:17:56;;;;;;;;;;;19.30;99.90;;;;;;5075054;28;20392;-76
2021/11/23 08:20:22;;;;;;;;;;;19.30;99.90;;;;;;5075300;28;19930;-74
2021/11/23 08:22:51;;;;;;;;;;;19.30;99.90;;;;;;5075224;28;19908;-75
2021/11/23 08:25:18;;;;;;;;;;;19.30;99.90;;;;;;5075250;28;19916;-71
2021/11/23 08:27:45;;;;;;;;;;;19.20;99.90;;;;;;5074942;28;19931;-72
2021/11/23 08:30:12;;;;;;;;;;;19.30;99.90;;;;;;5075058;28;19909;-72
2021/11/23 08:32:38;;;;;;;;;;;19.20;99.90;;;;;;5075589;28;19948;-75
2021/11/23 08:35:05;;;;;;;;;;;19.30;99.90;;;;;;5073570;28;20460;-75
2021/11/23 08:37:32;;;;;;;;;;;19.30;99.90;;;;;;5074376;28;19912;-74
2021/11/23 08:39:59;;;;;;;;;;;19.20;99.90;;;;;;5074712;28;19912;-75
2021/11/23 08:42:27;;;;;;;;;;;19.20;99.90;;;;;;5075072;28;19909;-73
2021/11/23 08:44:54;;;;;;;;;;;19.20;99.90;;;;;;5075251;28;19909;-71
2021/11/23 08:47:21;;;;;;;;;;;19.20;99.90;;;;;;5074914;28;20369;-75
2021/11/23 08:49:48;;;;;;;;;;;19.20;99.90;;;;;;5074576;28;19938;-75
2021/11/23 08:52:15;;;;;;;;;;;19.20;99.90;;;;;;5074015;28;19951;-75
2021/11/23 08:54:42;;;;;;;;;;;19.20;99.90;;;;;;5074697;28;19949;-73
2021/11/23 08:57:09;;;;;;;;;;;19.20;99.90;;;;;;5073815;28;19908;-74
2021/11/23 08:59:44;;;;;;;;;;;19.20;99.90;;;;;;5074458;28;19913;-71
2021/11/23 09:02:13;;;;;;;;;;;19.20;99.90;;;;;;5074433;28;19958;-75
2021/11/23 09:04:42;;;;;;;;;;;19.20;99.90;;;;;;5074505;28;19915;-73
2021/11/23 09:07:12;;;;;;;;;;;19.10;99.90;;;;;;5074358;28;20347;-70
2021/11/23 09:09:42;;;;;;;;;;;19.10;99.90;;;;;;5074456;28;19995;-72
2021/11/23 09:12:09;;;;;;;;;;;19.10;99.90;;;;;;5074195;28;20244;-73
2021/11/23 09:14:37;;;;;;;;;;;19.10;99.90;;;;;;5074463;28;19960;-73
2021/11/23 09:17:06;;;;;;;;;;;19.10;99.90;;;;;;5074433;28;19917;-72
2021/11/23 09:19:33;;;;;;;;;;;19.00;99.90;;;;;;5074641;28;19908;-73
2021/11/23 09:21:59;;;;;;;;;;;19.00;99.90;;;;;;5074100;28;19909;-72
2021/11/23 09:24:26;;;;;;;;;;;19.00;99.90;;;;;;5074371;28;20005;-72
2021/11/23 09:26:53;;;;;;;;;;;19.00;99.90;;;;;;5074206;28;19995;-71
2021/11/23 09:29:20;;;;;;;;;;;19.00;99.90;;;;;;5074170;28;19999;-73
2021/11/23 09:31:47;;;;;;;;;;;19.00;99.90;;;;;;5073803;28;20506;-73
2021/11/23 09:34:14;;;;;;;;;;;18.90;99.90;;;;;;5074097;28;19960;-72
2021/11/23 09:36:42;;;;;;;;;;;18.90;99.90;;;;;;5072685;28;20359;-73
2021/11/23 09:39:09;;;;;;;;;;;18.90;99.90;;;;;;5073999;28;20018;-71
2021/11/23 09:41:36;;;;;;;;;;;18.90;99.90;;;;;;5074079;28;20008;-74
2021/11/23 09:44:05;;;;;;;;;;;18.90;99.90;;;;;;5073808;28;20007;-73
2021/11/23 09:46:36;;;;;;;;;;;18.90;99.90;;;;;;5073888;28;19909;-75
2021/11/23 09:49:11;;;;;;;;;;;18.80;99.90;;;;;;5073911;28;19908;-74
2021/11/23 09:51:37;;;;;;;;;;;18.80;99.90;;;;;;5073743;28;19909;-73
2021/11/23 09:54:07;;;;;;;;;;;18.80;99.90;;;;;;5073623;28;20378;-73
2021/11/23 09:56:34;;;;;;;;;;;18.70;99.90;;;;;;5073565;28;19919;-71
2021/11/23 09:59:01;;;;;;;;;;;18.70;99.90;;;;;;5073533;28;19956;-75
2021/11/23 10:01:29;;;;;;;;;;;18.70;99.90;;;;;;5073448;28;19921;-74
2021/11/23 10:03:56;;;;;;;;;;;18.70;99.90;;;;;;5071933;28;20389;-74
2021/11/23 10:06:24;;;;;;;;;;;18.70;99.90;;;;;;5073159;28;19908;-74
2021/11/23 10:08:54;;;;;;;;;;;18.60;99.90;;;;;;5072514;28;19916;-75
2021/11/23 10:11:22;;;;;;;;;;;18.60;99.90;;;;;;5072957;28;19918;-75
2021/11/23 10:13:50;;;;;;;;;;;18.70;99.90;;;;;;5073190;28;19908;-73
2021/11/23 10:16:18;;;;;;;;;;;18.60;99.90;;;;;;5073227;28;19923;-74
2021/11/23 10:18:45;;;;;;;;;;;18.60;99.90;;;;;;5073208;28;19912;-73
2021/11/23 10:21:12;;;;;;;;;;;18.60;99.90;;;;;;5072988;28;20422;-72
2021/11/23 10:23:41;;;;;;;;;;;18.60;99.90;;;;;;5073166;28;20271;-73
2021/11/23 10:26:16;;;;;;;;;;;18.60;99.90;;;;;;5072550;28;20029;-70
2021/11/23 10:28:44;;;;;;;;;;;18.50;99.90;;;;;;5073171;28;19916;-72
2021/11/23 10:31:11;;;;;;;;;;;18.60;99.90;;;;;;5073013;28;19908;-71
2021/11/23 10:33:39;;;;;;;;;;;18.60;99.90;;;;;;5072821;28;20383;-68
2021/11/23 10:36:09;;;;;;;;;;;18.60;99.90;;;;;;5072386;28;19960;-73
2021/11/23 10:38:37;;;;;;;;;;;18.60;99.90;;;;;;5072897;28;20401;-69
2021/11/23 10:41:07;;;;;;;;;;;18.60;99.90;;;;;;5072360;28;20256;-74
2021/11/23 10:43:37;;;;;;;;;;;18.60;99.90;;;;;;5072826;28;19919;-73
2021/11/23 10:46:04;;;;;;;;;;;18.50;99.90;;;;;;5072327;28;19913;-73
2021/11/23 10:48:31;;;;;;;;;;;18.50;99.90;;;;;;5072745;28;19908;-70
2021/11/23 10:51:05;;;;;;;;;;;18.50;99.90;;;;;;5072455;28;20015;-74
2021/11/23 10:53:33;;;;;;;;;;;18.60;99.90;;;;;;5072533;28;19909;-73
2021/11/23 10:56:13;;;;;;;;;;;18.60;99.90;;;;;;5071850;28;19916;-67
2021/11/23 10:58:41;;;;;;;;;;;18.60;99.90;;;;;;5072508;28;20143;-68
2021/11/23 11:01:10;;;;;;;;;;;18.60;99.90;;;;;;5072455;28;20011;-75
2021/11/23 11:03:38;;;;;;;;;;;18.70;99.90;;;;;;5072424;28;19908;-73
2021/11/23 11:06:05;;;;;;;;;;;18.60;99.90;;;;;;5072079;28;19958;-75
2021/11/23 11:08:45;;;;;;;;;;;18.60;99.90;;;;;;5072525;28;19909;-74
2021/11/23 11:11:19;;;;;;;;;;;18.60;99.90;;;;;;5071937;28;20120;-76
2021/11/23 11:13:48;;;;;;;;;;;18.60;99.90;;;;;;5072215;28;20000;-75
2021/11/23 11:16:16;;;;;;;;;;;18.60;99.90;;;;;;5072200;28;19916;-75
2021/11/23 11:19:03;;;;;;;;;;;18.60;99.90;;;;;;5074362;28;19909;-74
2021/11/23 11:21:30;;;;;;;;;;;18.60;99.90;;;;;;5078643;28;19909;-75
2021/11/23 11:24:16;;;;;;;;;;;18.60;99.90;;;;;;5078539;28;20389;-71
2021/11/23 11:26:43;;;;;;;;;;;18.60;99.90;;;;;;5077150;28;20358;-69
2021/11/23 11:29:25;;;;;;;;;;;18.60;99.90;;;;;;5078698;28;19909;-69
2021/11/23 11:31:52;;;;;;;;;;;18.60;99.90;;;;;;5079082;28;19909;-71
2021/11/23 11:34:23;;;;;;;;;;;18.60;99.90;;;;;;5078891;28;19912;-74
2021/11/23 11:36:58;;;;;;;;;;;18.60;99.90;;;;;;5078675;28;19912;-73
2021/11/23 11:39:36;;;;;;;;;;;18.60;99.90;;;;;;5079035;28;19912;-76
2021/11/23 11:42:08;;;;;;;;;;;18.70;99.90;;;;;;5078218;28;20351;-73
2021/11/23 11:44:38;;;;;;;;;;;18.60;99.90;;;;;;5078759;28;19912;-74
2021/11/23 11:47:07;;;;;;;;;;;18.60;99.90;;;;;;5078740;28;19908;-72
2021/11/23 11:49:49;;;;;;;;;;;18.60;99.90;;;;;;5078654;28;19948;-74
2021/11/23 11:52:17;;;;;;;;;;;18.60;99.90;;;;;;5078483;28;19915;-73
2021/11/23 11:54:45;;;;;;;;;;;18.60;99.90;;;;;;5078753;28;19919;-73
2021/11/23 11:57:28;;;;;;;;;;;18.60;99.90;;;;;;5065033;28;20362;-74
2021/11/23 11:59:55;;;;;;;;;;;18.70;99.90;;;;;;5078497;28;19916;-73
2021/11/23 12:02:25;;;;;;;;;;;18.70;99.90;;;;;;5078571;28;19908;-72
2021/11/23 12:04:58;;;;;;;;;;;18.70;99.90;;;;;;5094088;28;20424;-68
2021/11/23 12:07:45;;;;;;;;;;;18.60;99.90;;;;;;5078297;28;19958;-69
2021/11/23 12:10:19;;;;;;;;;;;18.70;99.90;;;;;;5078447;28;19915;-71
2021/11/23 12:12:49;;;;;;;;;;;18.80;99.90;;;;;;5078516;28;19908;-71
2021/11/23 12:15:19;;;;;;;;;;;18.80;99.90;;;;;;5078266;28;19954;-69
2021/11/23 12:18:05;;;;;;;;;;;18.90;99.90;;;;;;5078432;28;19908;-69
2021/11/23 12:20:42;;;;;;;;;;;18.80;99.90;;;;;;5078295;28;19913;-73
2021/11/23 12:23:43;;;;;;;;;;;18.80;99.90;;;;;;5078438;28;19963;-71
2021/11/23 12:26:12;;;;;;;;;;;18.70;99.90;;;;;;5035880;28;19938;-68
2021/11/23 12:28:40;;;;;;;;;;;18.80;99.90;;;;;;5070483;28;19908;-73
2021/11/23 12:31:09;;;;;;;;;;;18.80;99.90;;;;;;5075185;28;19908;-71
2021/11/23 12:33:43;;;;;;;;;;;18.80;99.90;;;;;;5075260;28;19908;-69
2021/11/23 12:36:17;;;;;;;;;;;18.80;99.90;;;;;;5074573;28;19956;-72
2021/11/23 12:38:44;;;;;;;;;;;18.80;99.90;;;;;;5075128;28;20342;-68
2021/11/23 12:41:16;;;;;;;;;;;18.80;99.90;;;;;;5075085;28;20371;-72
2021/11/23 12:43:43;;;;;;;;;;;18.80;99.90;;;;;;5075003;28;19908;-72
2021/11/23 12:46:11;;;;;;;;;;;18.70;99.90;;;;;;5074643;28;19908;-74
2021/11/23 12:48:39;;;;;;;;;;;18.70;99.90;;;;;;5075271;28;20420;-67
2021/11/23 12:51:16;;;;;;;;;;;18.70;99.90;;;;;;5074944;28;20370;-68
2021/11/23 12:53:47;;;;;;;;;;;18.70;99.90;;;;;;5074678;28;20399;-73
2021/11/23 12:56:13;;;;;;;;;;;18.70;99.90;;;;;;5074745;28;19966;-69
2021/11/23 12:58:40;;;;;;;;;;;18.70;99.90;;;;;;5074934;28;19908;-73
2021/11/23 13:01:07;;;;;;;;;;;18.70;99.90;;;;;;5074656;28;19920;-71
2021/11/23 13:03:34;;;;;;;;;;;18.70;99.90;;;;;;5074624;28;19919;-72
2021/11/23 13:06:10;;;;;;;;;;;18.70;99.90;;;;;;5074409;28;19961;-74
2021/11/23 13:08:37;;;;;;;;;;;18.70;99.90;;;;;;5074724;28;19916;-68
2021/11/23 13:11:15;;;;;;;;;;;18.70;99.90;;;;;;5074623;28;20314;-68
2021/11/23 13:13:41;;;;;;;;;;;18.70;99.90;;;;;;5074587;28;19995;-69
2021/11/23 13:16:11;;;;;;;;;;;18.60;99.90;;;;;;5074050;28;19924;-68
2021/11/23 13:18:37;;;;;;;;;;;18.60;99.90;;;;;;5074266;28;20274;-72
2021/11/23 13:21:06;;;;;;;;;;;18.60;99.90;;;;;;5074329;28;20358;-69
2021/11/23 13:23:36;;;;;;;;;;;18.60;99.90;;;;;;5074425;28;19908;-68
2021/11/23 13:26:03;;;;;;;;;;;18.60;99.90;;;;;;5074119;28;19916;-69
2021/11/23 13:28:32;;;;;;;;;;;18.60;99.90;;;;;;5074243;28;19916;-69
2021/11/23 13:30:59;;;;;;;;;;;18.60;99.90;;;;;;5074125;28;19944;-67
2021/11/23 13:33:40;;;;;;;;;;;18.50;99.90;;;;;;5073942;28;19999;-67
2021/11/23 13:36:15;;;;;;;;;;;18.50;99.90;;;;;;5073586;28;19924;-66
2021/11/23 13:38:55;;;;;;;;;;;18.50;99.90;;;;;;5074064;28;19916;-66
2021/11/23 13:41:28;;;;;;;;;;;18.50;99.90;;;;;;5074287;28;20267;-67
2021/11/23 13:43:57;;;;;;;;;;;18.60;99.90;;;;;;5073735;28;19912;-68
2021/11/23 13:46:24;;;;;;;;;;;18.60;99.90;;;;;;5073731;28;19987;-67
2021/11/23 13:49:04;;;;;;;;;;;18.70;99.90;;;;;;5073705;28;19909;-66
2021/11/23 13:51:31;;;;;;;;;;;18.80;99.90;;;;;;5073638;28;19998;-69
2021/11/23 13:54:00;;;;;;;;;;;18.80;99.90;;;;;;5073670;28;20020;-66
2021/11/23 13:56:29;;;;;;;;;;;18.90;99.90;;;;;;5073674;28;19916;-67
2021/11/23 13:58:57;;;;;;;;;;;18.90;99.90;;;;;;5073738;28;19919;-68
2021/11/23 14:01:24;;;;;;;;;;;18.90;99.90;;;;;;5073579;28;19924;-69
2021/11/23 14:04:07;;;;;;;;;;;19.00;99.90;;;;;;5073402;28;19915;-70
2021/11/23 14:06:54;;;;;;;;;;;19.00;99.90;;;;;;5073279;28;20340;-67
2021/11/23 14:09:20;;;;;;;;;;;19.00;99.90;;;;;;5073575;28;19908;-72
2021/11/23 14:12:16;;;;;;;;;;;19.00;99.90;;;;;;5073191;28;19962;-66
2021/11/23 14:15:01;;;;;;;;;;;19.00;99.90;;;;;;5064054;28;19912;-67
2021/11/23 14:17:46;;;;;;;;;;;19.00;99.90;;;;;;5073219;28;19909;-68
2021/11/23 14:20:13;;;;;;;;;;;19.00;99.90;;;;;;5072864;28;19909;-70
2021/11/23 14:22:40;;;;;;;;;;;18.90;99.90;;;;;;5073148;28;19908;-71
2021/11/23 14:25:23;;;;;;;;;;;19.00;99.90;;;;;;5073006;28;19915;-70